Time;durP1;ratioP1;P1;durP2;ratioP2;P2;SDS_P1;SDS_P2;PMS_P1;PMS_P2;Temp;Humidity;BMP_temperature;BMP_pressure;BME280_temperature;BME280_humidity;BME280_pressure;Samples;Min_cycle;Max_cycle;Signal;HPM_P1;HPM_P2
2022/02/10 00:06:28;;;;;;;10.98;2.03;;;28.60;12.60;;;;;;5068881;28;20446;-66
2022/02/10 00:17:14;;;;;;;19.98;6.35;;;28.10;14.40;;;;;;5069744;28;20070;-64
2022/02/10 00:22:28;;;;;;;13.82;3.65;;;28.00;14.40;;;;;;5069333;28;20072;-65
2022/02/10 00:36:07;;;;;;;22.25;3.33;;;27.60;14.10;;;;;;5069196;28;20449;-63
2022/02/10 00:38:32;;;;;;;23.48;3.17;;;27.60;14.20;;;;;;5068388;28;20081;-64
2022/02/10 00:40:59;;;;;;;16.90;2.65;;;27.50;14.70;;;;;;5067143;28;20178;-63
2022/02/10 00:43:25;;;;;;;18.45;2.72;;;27.30;14.40;;;;;;5069142;28;20707;-64
2022/02/10 00:45:52;;;;;;;22.83;7.05;;;27.30;14.90;;;;;;5071421;28;20159;-64
2022/02/10 00:48:20;;;;;;;26.77;4.30;;;27.20;15.00;;;;;;5070601;28;20084;-65
2022/02/10 00:50:49;;;;;;;35.30;4.47;;;27.10;14.40;;;;;;5072187;28;20068;-65
2022/02/10 00:53:40;;;;;;;19.38;2.70;;;27.10;14.60;;;;;;5073115;28;20511;-64
2022/02/10 00:56:03;;;;;;;23.25;2.83;;;27.10;15.00;;;;;;5072709;28;20113;-63
2022/02/10 00:58:32;;;;;;;22.73;3.00;;;26.90;14.90;;;;;;5072801;28;20065;-65
2022/02/10 01:31:03;;;;;;;49.90;5.32;;;24.00;19.20;;;;;;5072141;28;20118;-62
2022/02/10 01:33:32;;;;;;;35.42;5.20;;;23.80;19.60;;;;;;5071121;28;20093;-60
2022/02/10 01:35:58;;;;;;;48.20;5.63;;;23.60;19.90;;;;;;5071582;28;20454;-63
2022/02/10 01:38:25;;;;;;;58.85;6.55;;;23.50;20.10;;;;;;5072373;28;20163;-62
2022/02/10 02:05:39;;;;;;;43.75;6.95;;;22.00;22.10;;;;;;5071556;28;20446;-62
2022/02/10 02:08:07;;;;;;;52.22;8.82;;;21.90;22.40;;;;;;5070688;28;20171;-63
2022/02/10 02:10:34;;;;;;;54.88;10.93;;;21.70;22.50;;;;;;5070960;28;20163;-62
2022/02/10 02:13:04;;;;;;;54.95;13.07;;;21.70;22.80;;;;;;5071856;28;20146;-62
2022/02/10 02:15:31;;;;;;;63.88;10.75;;;21.60;22.70;;;;;;5053175;28;20746;-62
2022/02/10 02:17:57;;;;;;;62.95;9.00;;;21.40;23.20;;;;;;5070902;28;20112;-64
2022/02/10 02:20:24;;;;;;;62.58;11.02;;;21.40;23.60;;;;;;5070197;28;20519;-64
2022/02/10 02:22:50;;;;;;;72.65;10.75;;;21.20;23.60;;;;;;5071760;28;20081;-61
2022/02/10 02:25:17;;;;;;;64.60;14.15;;;21.10;23.90;;;;;;5053644;28;20072;-64
2022/02/10 02:27:49;;;;;;;63.13;12.98;;;21.00;24.00;;;;;;5070868;28;20073;-64
2022/02/10 02:30:23;;;;;;;55.65;10.95;;;20.90;24.20;;;;;;5052622;28;20085;-65
2022/02/10 02:33:06;;;;;;;73.28;11.27;;;20.80;24.70;;;;;;5070118;28;20073;-61
2022/02/10 02:36:13;;;;;;;73.03;10.65;;;20.70;24.60;;;;;;5069619;28;20095;-61
2022/02/10 03:08:20;;;;;;;71.18;10.18;;;19.70;26.50;;;;;;5068747;28;20442;-58
2022/02/10 03:11:00;;;;;;;69.43;11.63;;;19.60;26.50;;;;;;5069232;28;20146;-62
2022/02/10 03:13:37;;;;;;;92.43;13.15;;;19.50;25.70;;;;;;5070448;28;20076;-61
2022/02/10 04:08:08;;;;;;;110.93;20.77;;;18.60;27.70;;;;;;5069366;28;20496;-64
2022/02/10 04:16:30;;;;;;;;;;;18.40;27.90;;;;;;5067397;28;21042;-62
2022/02/10 04:21:19;;;;;;;29.65;4.55;;;18.30;26.80;;;;;;5069312;28;20134;-64
2022/02/10 04:24:12;;;;;;;25.67;3.70;;;18.50;24.50;;;;;;5067293;28;20069;-62
2022/02/10 04:26:51;;;;;;;25.45;3.20;;;19.00;23.50;;;;;;5068625;28;20073;-61
2022/02/10 05:01:17;;;;;;;9.68;1.67;;;21.10;21.90;;;;;;5070142;28;20076;-63
2022/02/10 05:15:22;;;;;;;11.38;2.15;;;20.50;22.70;;;;;;5052214;28;20536;-63
2022/02/10 05:23:21;;;;;;;7.28;1.45;;;20.20;22.60;;;;;;5046207;28;20093;-61
2022/02/10 05:31:57;;;;;;;8.88;1.85;;;20.20;22.30;;;;;;5072066;28;20119;-59
2022/02/10 05:34:15;;;;;;;8.27;1.23;;;20.20;22.50;;;;;;5071530;28;20089;-63
2022/02/10 05:36:43;;;;;;;6.07;1.52;;;20.20;22.50;;;;;;5037754;28;20085;-64
2022/02/10 05:39:21;;;;;;;6.95;1.67;;;20.10;22.40;;;;;;5055208;28;20505;-60
2022/02/10 05:58:10;;;;;;;6.53;1.38;;;20.10;21.30;;;;;;5071636;28;20592;-62
2022/02/10 06:01:41;;;;;;;7.75;1.52;;;20.30;20.80;;;;;;5056239;28;20103;-66
2022/02/10 06:50:58;;;;;;;6.65;0.85;;;20.40;19.90;;;;;;5071696;28;20616;-57
2022/02/10 07:04:13;;;;;;;6.88;1.73;;;20.20;19.70;;;;;;5071695;28;20226;-60
2022/02/10 07:43:23;;;;;;;9.70;2.28;;;19.40;21.10;;;;;;5070687;28;20143;-57
2022/02/10 07:48:05;;;;;;;10.70;2.35;;;18.90;19.40;;;;;;5071136;28;20506;-59
2022/02/10 07:53:48;;;;;;;13.68;2.47;;;18.90;19.80;;;;;;5069167;28;20095;-61
2022/02/10 08:55:38;;;;;;;2.60;1.30;;;17.90;22.10;;;;;;5068179;28;20112;-63
2022/02/10 09:11:51;;;;;;;1.98;0.90;;;17.80;22.30;;;;;;5072730;28;20451;-61
2022/02/10 10:03:15;;;;;;;8.68;1.15;;;18.80;24.90;;;;;;5068728;28;20089;-62
2022/02/10 10:06:30;;;;;;;3.50;0.90;;;19.00;25.10;;;;;;5053125;28;20081;-64
2022/02/10 10:14:55;;;;;;;7.22;0.93;;;19.30;25.70;;;;;;5053984;28;20089;-62
2022/02/10 10:17:41;;;;;;;6.65;0.60;;;19.30;25.80;;;;;;5069296;28;20485;-61
2022/02/10 10:23:24;;;;;;;17.48;1.15;;;19.50;26.20;;;;;;5070745;28;20065;-61
2022/02/10 10:50:37;;;;;;;3.42;0.82;;;18.40;26.10;;;;;;5069926;28;19960;-64
2022/02/10 10:53:20;;;;;;;6.20;0.80;;;18.20;26.20;;;;;;5069029;28;20114;-63
2022/02/10 10:55:59;;;;;;;7.22;1.00;;;18.10;26.30;;;;;;5069100;28;20097;-62
2022/02/10 11:04:50;;;;;;;4.70;1.15;;;17.80;27.10;;;;;;5068705;28;21261;-60
2022/02/10 11:07:44;;;;;;;3.25;1.25;;;17.60;27.40;;;;;;5069478;28;20084;-62
2022/02/10 11:38:07;;;;;;;15.07;3.13;;;16.20;28.80;;;;;;5069154;28;20613;-62
2022/02/10 11:40:53;;;;;;;14.63;2.70;;;16.10;28.10;;;;;;5069372;28;20088;-64
2022/02/10 13:48:38;;;;;;;15.88;2.05;;;17.30;34.60;;;;;;5075289;28;20091;-62
2022/02/10 14:13:06;;;;;;;18.65;2.30;;;17.90;32.50;;;;;;5069414;28;20072;-62
2022/02/10 14:18:24;;;;;;;18.58;1.90;;;17.70;32.70;;;;;;5070364;28;20478;-61
2022/02/10 14:28:28;;;;;;;19.65;2.70;;;17.40;33.40;;;;;;5052218;28;20100;-61
2022/02/10 14:30:55;;;;;;;24.92;2.90;;;17.20;33.60;;;;;;5066672;28;20419;-63
2022/02/10 14:33:29;;;;;;;19.83;2.85;;;17.10;34.40;;;;;;5069418;28;20119;-62
2022/02/10 14:36:14;;;;;;;25.45;2.50;;;17.00;34.70;;;;;;5071285;28;20167;-62
2022/02/10 14:38:56;;;;;;;32.58;3.25;;;16.80;35.20;;;;;;5070295;28;20151;-61
2022/02/10 15:20:39;;;;;;;48.03;6.45;;;16.60;37.50;;;;;;5069740;28;20330;-62
2022/02/10 15:53:07;;;;;;;54.17;6.03;;;18.60;34.60;;;;;;5068370;28;20081;-62
2022/02/10 16:19:25;;;;;;;65.95;6.80;;;19.40;34.50;;;;;;5069200;28;20097;-61
2022/02/10 16:22:22;;;;;;;44.40;8.38;;;19.60;33.90;;;;;;5050660;28;20085;-63
2022/02/10 16:24:59;;;;;;;36.38;5.13;;;19.80;33.20;;;;;;5068015;28;20104;-61
2022/02/10 16:27:28;;;;;;;39.25;5.20;;;20.10;32.20;;;;;;5068566;28;20069;-63
2022/02/10 16:30:04;;;;;;;42.80;6.18;;;20.30;32.20;;;;;;5064140;28;20531;-62
2022/02/10 16:32:31;;;;;;;48.03;5.60;;;20.50;31.80;;;;;;5067157;28;20159;-62
2022/02/10 16:35:01;;;;;;;39.30;4.53;;;20.70;31.40;;;;;;5068398;28;20163;-61
2022/02/10 16:37:28;;;;;;;50.08;4.72;;;21.00;31.50;;;;;;5068477;28;20073;-60
2022/02/10 16:39:55;;;;;;;33.15;4.97;;;21.30;30.20;;;;;;5068070;28;20523;-62
2022/02/10 16:42:21;;;;;;;45.42;3.92;;;21.60;29.80;;;;;;5067877;28;20462;-62
2022/02/10 16:44:48;;;;;;;32.90;4.47;;;21.90;29.30;;;;;;5066326;28;20077;-63
2022/02/10 16:47:15;;;;;;;32.53;4.28;;;22.10;29.00;;;;;;5067386;28;20085;-62
2022/02/10 16:49:48;;;;;;;41.17;4.15;;;22.40;28.90;;;;;;5066338;28;20077;-62
2022/02/10 16:52:21;;;;;;;34.42;4.05;;;22.70;28.60;;;;;;5067595;28;20093;-62
2022/02/10 16:54:50;;;;;;;17.83;3.10;;;22.90;28.20;;;;;;5066637;28;20458;-64
2022/02/10 17:26:53;;;;;;;17.90;2.45;;;25.80;26.00;;;;;;5054534;28;20624;-63
2022/02/10 17:29:41;;;;;;;26.13;2.15;;;26.30;25.60;;;;;;5070931;28;20076;-65
2022/02/10 17:32:15;;;;;;;15.80;1.50;;;26.60;25.40;;;;;;5072318;28;20099;-66
2022/02/10 17:43:11;;;;;;;15.13;1.50;;;27.60;24.50;;;;;;5071318;28;20166;-62
2022/02/10 17:53:27;;;;;;;16.65;1.63;;;28.00;24.40;;;;;;5071591;28;20100;-62
2022/02/10 17:55:54;;;;;;;15.95;1.35;;;28.10;24.80;;;;;;5071891;28;20091;-62
2022/02/10 17:58:22;;;;;;;11.95;1.52;;;28.40;24.10;;;;;;5071008;28;20118;-65
2022/02/10 18:00:57;;;;;;;11.15;1.23;;;28.50;23.90;;;;;;5055791;28;20437;-61
2022/02/10 18:03:24;;;;;;;26.23;2.05;;;28.60;24.20;;;;;;5071784;28;20091;-63
2022/02/10 18:06:38;;;;;;;18.23;2.63;;;29.10;23.80;;;;;;5070272;28;20080;-61
2022/02/10 18:08:50;;;;;;;21.05;2.17;;;29.20;22.20;;;;;;5062770;28;20078;-63
2022/02/10 18:14:06;;;;;;;24.38;2.33;;;29.40;21.70;;;;;;5071249;28;20082;-64
2022/02/10 18:19:45;;;;;;;10.55;1.20;;;30.00;21.50;;;;;;5071774;28;20108;-63
2022/02/10 19:07:37;;;;;;;11.98;1.67;;;33.10;17.40;;;;;;5070456;28;20152;-63
2022/02/10 19:10:09;;;;;;;26.30;3.00;;;32.30;17.60;;;;;;5068776;28;20590;-61
2022/02/10 19:12:48;;;;;;;23.50;2.33;;;31.40;18.10;;;;;;5070411;28;20072;-62
2022/02/10 19:15:21;;;;;;;19.67;3.00;;;31.20;18.30;;;;;;5070522;28;20075;-62
2022/02/10 19:17:48;;;;;;;38.83;3.67;;;30.50;19.30;;;;;;5052410;28;20197;-62
2022/02/10 19:20:16;;;;;;;14.85;2.67;;;30.50;19.40;;;;;;5069254;28;20091;-61
2022/02/10 19:22:43;;;;;;;19.05;2.13;;;31.00;18.90;;;;;;5068043;28;20163;-63
2022/02/10 19:25:12;;;;;;;53.28;3.75;;;30.90;18.70;;;;;;5068812;28;20074;-62
2022/02/10 19:27:45;;;;;;;21.95;2.38;;;30.50;18.90;;;;;;5069480;28;20108;-62
2022/02/10 19:30:15;;;;;;;26.75;2.83;;;30.20;18.90;;;;;;5069527;28;20092;-64
2022/02/10 19:32:48;;;;;;;30.25;3.08;;;29.90;19.20;;;;;;5069112;28;20445;-62
2022/02/10 19:35:17;;;;;;;31.63;2.95;;;30.10;19.40;;;;;;5070340;28;20543;-62
2022/02/10 19:37:51;;;;;;;25.80;3.10;;;29.90;18.90;;;;;;5068919;28;20085;-62
2022/02/10 19:40:18;;;;;;;27.33;2.92;;;29.50;19.20;;;;;;5068778;28;20084;-61
2022/02/10 19:42:47;;;;;;;21.73;2.83;;;29.40;19.20;;;;;;5070248;28;20119;-62
2022/02/10 19:45:14;;;;;;;22.23;2.50;;;29.40;19.40;;;;;;5068406;28;20539;-62
2022/02/10 19:47:41;;;;;;;27.58;2.80;;;29.20;19.20;;;;;;5067853;28;20107;-62
2022/02/10 19:50:13;;;;;;;73.45;3.80;;;29.20;19.80;;;;;;5066890;28;20561;-63
2022/02/10 19:52:43;;;;;;;27.00;3.13;;;29.50;20.20;;;;;;5068511;28;20069;-61
2022/02/10 19:55:17;;;;;;;23.67;4.22;;;29.40;19.60;;;;;;5068816;28;20073;-63
2022/02/10 19:57:43;;;;;;;24.80;2.92;;;29.00;19.80;;;;;;5068649;28;20582;-63
2022/02/10 20:00:16;;;;;;;13.45;2.53;;;28.80;20.20;;;;;;5069423;28;20076;-63
2022/02/10 20:02:43;;;;;;;50.20;3.70;;;28.70;20.40;;;;;;5068760;28;20079;-62
2022/02/10 20:05:10;;;;;;;26.60;2.40;;;28.90;20.30;;;;;;5068108;28;20084;-62
2022/02/10 20:07:38;;;;;;;17.55;2.90;;;28.70;20.90;;;;;;5069593;28;20152;-63
2022/02/10 20:10:06;;;;;;;28.83;2.67;;;28.60;20.30;;;;;;5068858;28;20081;-61
2022/02/10 20:12:32;;;;;;;16.92;2.28;;;28.70;20.40;;;;;;5069537;28;20100;-63
2022/02/10 20:14:59;;;;;;;24.90;2.55;;;28.80;20.40;;;;;;5067450;28;20070;-63
2022/02/10 20:17:25;;;;;;;36.92;2.92;;;28.90;20.20;;;;;;5050764;28;20449;-60
2022/02/10 20:19:52;;;;;;;34.50;3.70;;;28.80;20.20;;;;;;5067311;28;20097;-61
2022/02/10 20:22:18;;;;;;;22.23;2.65;;;28.50;20.40;;;;;;5068426;28;20544;-61
2022/02/10 20:24:44;;;;;;;30.17;3.60;;;28.50;20.50;;;;;;5068617;28;20079;-63
2022/02/10 20:27:11;;;;;;;31.13;2.90;;;28.50;20.60;;;;;;5068439;28;20076;-60
2022/02/10 20:29:37;;;;;;;41.78;3.55;;;28.70;20.60;;;;;;5068370;28;20552;-62
2022/02/10 20:32:05;;;;;;;37.33;4.95;;;28.50;20.00;;;;;;5068908;28;20084;-62
2022/02/10 20:34:33;;;;;;;35.95;3.78;;;28.50;20.20;;;;;;5067036;28;20123;-61
2022/02/10 20:37:02;;;;;;;47.33;4.80;;;28.30;20.40;;;;;;5069498;28;20112;-64
2022/02/10 20:39:29;;;;;;;35.60;4.60;;;28.50;20.60;;;;;;5067601;28;20068;-64
2022/02/10 20:42:04;;;;;;;34.67;4.57;;;28.40;20.40;;;;;;5051341;28;20156;-61
2022/02/10 20:44:31;;;;;;;29.45;3.60;;;28.50;20.60;;;;;;5067986;28;20535;-61
2022/02/10 20:46:59;;;;;;;38.63;4.20;;;28.60;20.40;;;;;;5068344;28;20600;-63
2022/02/10 20:49:29;;;;;;;22.23;3.50;;;29.00;20.50;;;;;;5067755;28;20092;-61
2022/02/10 20:51:57;;;;;;;36.33;4.82;;;29.10;20.10;;;;;;5067679;28;20118;-60
2022/02/10 20:54:26;;;;;;;38.17;4.15;;;28.90;20.30;;;;;;5071942;28;20072;-62
2022/02/10 20:56:53;;;;;;;37.75;4.00;;;28.90;20.30;;;;;;5071533;28;20095;-59
2022/02/10 20:59:30;;;;;;;27.10;4.10;;;28.80;19.90;;;;;;5069569;28;20516;-57
2022/02/10 21:02:03;;;;;;;41.80;3.63;;;28.70;19.80;;;;;;5072698;28;20060;-61
2022/02/10 21:04:32;;;;;;;34.97;3.95;;;28.60;20.40;;;;;;5071046;28;20095;-61
2022/02/10 21:07:14;;;;;;;27.55;3.30;;;28.70;20.70;;;;;;5070414;28;20211;-62
2022/02/10 21:12:12;;;;;;;28.48;4.28;;;29.30;20.40;;;;;;5072211;28;20083;-60
2022/02/10 21:14:39;;;;;;;27.40;3.67;;;29.20;19.90;;;;;;5071476;28;20097;-63
2022/02/10 21:17:09;;;;;;;30.40;3.83;;;29.20;20.10;;;;;;5071604;28;20184;-63
2022/02/10 21:19:36;;;;;;;34.45;3.83;;;29.00;20.40;;;;;;5072733;28;20110;-62
2022/02/10 21:22:10;;;;;;;29.58;3.70;;;29.00;20.00;;;;;;5071428;28;20504;-62
2022/02/10 21:24:43;;;;;;;37.40;3.72;;;29.00;20.10;;;;;;5071423;28;20078;-63
2022/02/10 21:29:58;;;;;;;23.23;2.80;;;29.10;19.90;;;;;;5072780;28;20079;-65
2022/02/10 21:32:27;;;;;;;37.75;3.20;;;28.80;19.40;;;;;;5071138;28;20076;-61
2022/02/10 21:52:37;;;;;;;21.77;3.00;;;28.80;19.20;;;;;;5072529;28;20080;-65
2022/02/10 21:59:54;;;;;;;22.38;3.42;;;29.10;19.50;;;;;;5040023;28;20592;-64
2022/02/10 22:21:52;;;;;;;15.82;1.48;;;29.20;19.10;;;;;;5071742;28;20121;-67
2022/02/10 22:24:12;;;;;;;24.20;1.85;;;29.30;20.40;;;;;;5067523;28;20080;-65
2022/02/10 22:26:40;;;;;;;20.65;2.40;;;29.20;20.90;;;;;;5070652;28;20072;-66
2022/02/10 22:29:12;;;;;;;20.30;2.53;;;29.00;20.50;;;;;;5071976;28;20084;-66
2022/02/10 22:31:52;;;;;;;45.70;3.47;;;29.10;20.40;;;;;;5071389;28;20121;-63
2022/02/10 22:34:40;;;;;;;18.10;2.10;;;29.00;20.20;;;;;;5070589;28;20084;-67
2022/02/10 22:37:10;;;;;;;13.98;1.65;;;29.00;20.30;;;;;;5069319;28;20434;-67
2022/02/10 22:39:45;;;;;;;13.00;1.75;;;29.10;20.40;;;;;;5069832;28;20087;-64
2022/02/10 22:42:11;;;;;;;10.50;2.00;;;29.00;20.40;;;;;;5070178;28;20067;-65
2022/02/10 22:44:39;;;;;;;14.82;1.70;;;29.00;20.60;;;;;;5070127;28;20171;-67
2022/02/10 22:47:07;;;;;;;13.88;1.50;;;29.10;20.60;;;;;;5070359;28;21539;-67
2022/02/10 22:49:34;;;;;;;15.75;2.90;;;29.10;20.70;;;;;;5070405;28;20086;-65
2022/02/10 22:52:01;;;;;;;14.52;1.85;;;29.00;20.40;;;;;;5069713;28;20076;-64
2022/02/10 22:54:30;;;;;;;12.45;1.77;;;28.90;20.50;;;;;;5069997;28;20076;-65
2022/02/10 22:56:58;;;;;;;15.90;1.98;;;28.80;20.10;;;;;;5069857;28;20083;-65
2022/02/10 22:59:24;;;;;;;16.13;1.83;;;28.90;20.50;;;;;;5069641;28;20072;-65
2022/02/10 23:01:52;;;;;;;6.82;1.63;;;28.90;20.60;;;;;;5053623;28;20778;-67
2022/02/10 23:04:19;;;;;;;16.48;1.70;;;28.90;20.70;;;;;;5071537;28;20088;-65
2022/02/10 23:06:47;;;;;;;13.00;1.73;;;28.80;20.40;;;;;;5070204;28;20119;-68
2022/02/10 23:11:59;;;;;;;22.42;2.80;;;28.80;21.00;;;;;;5069671;28;20111;-65
2022/02/10 23:14:27;;;;;;;30.13;1.98;;;28.90;20.80;;;;;;5052494;28;20077;-65
2022/02/10 23:16:53;;;;;;;13.07;2.40;;;29.00;20.40;;;;;;5068965;28;20090;-66
2022/02/10 23:19:21;;;;;;;15.75;1.98;;;28.90;20.40;;;;;;5052086;28;20566;-64
2022/02/10 23:21:47;;;;;;;17.65;1.90;;;28.90;20.10;;;;;;5067640;28;20073;-65
2022/02/10 23:24:14;;;;;;;17.05;1.73;;;28.80;20.10;;;;;;5067818;28;20069;-65
2022/02/10 23:26:40;;;;;;;10.85;1.70;;;28.70;20.30;;;;;;5069388;28;20079;-65
2022/02/10 23:29:07;;;;;;;12.98;1.70;;;28.60;20.30;;;;;;5069012;28;20088;-67
2022/02/10 23:31:33;;;;;;;9.13;1.35;;;28.70;20.50;;;;;;5069530;28;20080;-66
2022/02/10 23:34:03;;;;;;;6.90;1.33;;;28.60;20.70;;;;;;5068352;28;20142;-65
2022/02/10 23:39:49;;;;;;;12.82;1.58;;;28.60;20.70;;;;;;5070694;28;20065;-65
2022/02/10 23:44:51;;;;;;;8.55;1.02;;;28.40;20.40;;;;;;5007443;28;20073;-66
2022/02/10 23:47:21;;;;;;;9.75;1.20;;;28.30;20.40;;;;;;4991938;28;20174;-66
2022/02/10 23:49:53;;;;;;;12.38;2.17;;;28.30;20.70;;;;;;4991269;28;20145;-66
2022/02/10 23:52:20;;;;;;;10.20;1.65;;;28.20;20.60;;;;;;4990575;28;20078;-67
2022/02/10 23:54:52;;;;;;;7.43;2.60;;;28.20;20.20;;;;;;4989673;28;20089;-65
2022/02/10 23:57:23;;;;;;;12.48;1.00;;;28.30;20.70;;;;;;5007051;28;20527;-63
